sensor_id;sensor_type;location;lat;lon;timestamp;pressure;altitude;pressure_sealevel;temperature;humidity
44103;BME280;29769;42.178;24.742;2023-03-16T00:01:56;98550.25;;;8.36;93.48
44103;BME280;29769;42.178;24.742;2023-03-16T00:04:41;98544.00;;;8.43;92.09
44103;BME280;29769;42.178;24.742;2023-03-16T00:07:25;98548.09;;;8.54;90.86
44103;BME280;29769;42.178;24.742;2023-03-16T00:10:10;98533.81;;;8.65;91.07
44103;BME280;29769;42.178;24.742;2023-03-16T00:12:56;98536.19;;;8.74;91.68
44103;BME280;29769;42.178;24.742;2023-03-16T00:15:40;98542.97;;;8.81;92.07
44103;BME280;29769;42.178;24.742;2023-03-16T00:18:26;98541.09;;;8.86;92.70
44103;BME280;29769;42.178;24.742;2023-03-16T00:21:10;98541.84;;;8.91;93.24
44103;BME280;29769;42.178;24.742;2023-03-16T00:23:57;98549.47;;;9.01;94.48
44103;BME280;29769;42.178;24.742;2023-03-16T00:26:41;98539.69;;;9.07;95.30
44103;BME280;29769;42.178;24.742;2023-03-16T00:29:26;98536.06;;;9.11;96.06
44103;BME280;29769;42.178;24.742;2023-03-16T00:32:10;98536.69;;;9.19;96.35
44103;BME280;29769;42.178;24.742;2023-03-16T00:34:55;98522.69;;;9.20;97.19
44103;BME280;29769;42.178;24.742;2023-03-16T00:37:39;98536.56;;;9.24;97.58
44103;BME280;29769;42.178;24.742;2023-03-16T00:40:26;98539.16;;;9.25;98.56
44103;BME280;29769;42.178;24.742;2023-03-16T00:43:10;98531.28;;;9.25;99.60
44103;BME280;29769;42.178;24.742;2023-03-16T00:45:58;98546.97;;;9.27;100.00
44103;BME280;29769;42.178;24.742;2023-03-16T00:48:45;98555.72;;;9.27;100.00
44103;BME280;29769;42.178;24.742;2023-03-16T00:51:30;98550.44;;;9.29;100.00
44103;BME280;29769;42.178;24.742;2023-03-16T00:54:16;98533.78;;;9.30;100.00
44103;BME280;29769;42.178;24.742;2023-03-16T00:57:01;98562.59;;;9.31;100.00
44103;BME280;29769;42.178;24.742;2023-03-16T00:59:46;98559.13;;;9.31;100.00
44103;BME280;29769;42.178;24.742;2023-03-16T01:02:31;98557.31;;;9.33;100.00
44103;BME280;29769;42.178;24.742;2023-03-16T01:05:16;98561.66;;;9.34;100.00
44103;BME280;29769;42.178;24.742;2023-03-16T01:08:00;98567.78;;;9.34;100.00
44103;BME280;29769;42.178;24.742;2023-03-16T01:10:47;98566.16;;;9.29;100.00
44103;BME280;29769;42.178;24.742;2023-03-16T01:13:32;98573.19;;;9.28;100.00
44103;BME280;29769;42.178;24.742;2023-03-16T01:16:16;98558.34;;;9.27;100.00
44103;BME280;29769;42.178;24.742;2023-03-16T01:19:07;98561.94;;;9.23;100.00
44103;BME280;29769;42.178;24.742;2023-03-16T01:21:52;98571.69;;;9.20;100.00
44103;BME280;29769;42.178;24.742;2023-03-16T01:24:36;98558.59;;;9.18;100.00
44103;BME280;29769;42.178;24.742;2023-03-16T01:27:21;98558.69;;;9.15;100.00
44103;BME280;29769;42.178;24.742;2023-03-16T01:30:09;98565.78;;;9.12;100.00
44103;BME280;29769;42.178;24.742;2023-03-16T01:32:56;98554.66;;;9.04;100.00
44103;BME280;29769;42.178;24.742;2023-03-16T01:35:41;98570.53;;;8.98;100.00
44103;BME280;29769;42.178;24.742;2023-03-16T01:38:26;98564.59;;;8.91;100.00
44103;BME280;29769;42.178;24.742;2023-03-16T01:41:11;98561.44;;;8.78;100.00
44103;BME280;29769;42.178;24.742;2023-03-16T01:43:55;98567.13;;;8.62;100.00
44103;BME280;29769;42.178;24.742;2023-03-16T01:46:42;98578.59;;;8.56;100.00
44103;BME280;29769;42.178;24.742;2023-03-16T01:52:18;98578.97;;;8.41;100.00
44103;BME280;29769;42.178;24.742;2023-03-16T01:55:05;98581.78;;;8.33;100.00
44103;BME280;29769;42.178;24.742;2023-03-16T01:57:52;98605.53;;;8.26;100.00
44103;BME280;29769;42.178;24.742;2023-03-16T02:00:37;98600.50;;;8.17;100.00
44103;BME280;29769;42.178;24.742;2023-03-16T02:03:27;98600.53;;;8.14;100.00
44103;BME280;29769;42.178;24.742;2023-03-16T02:06:18;98609.47;;;8.05;100.00
44103;BME280;29769;42.178;24.742;2023-03-16T02:09:09;98604.34;;;8.00;100.00
44103;BME280;29769;42.178;24.742;2023-03-16T02:11:54;98608.91;;;7.91;100.00
44103;BME280;29769;42.178;24.742;2023-03-16T02:14:40;98609.84;;;7.88;100.00
44103;BME280;29769;42.178;24.742;2023-03-16T02:17:26;98623.03;;;7.85;100.00
44103;BME280;29769;42.178;24.742;2023-03-16T02:23:00;98624.78;;;7.85;100.00
44103;BME280;29769;42.178;24.742;2023-03-16T02:28:43;98631.78;;;7.83;100.00
44103;BME280;29769;42.178;24.742;2023-03-16T02:31:33;98614.34;;;7.82;100.00
44103;BME280;29769;42.178;24.742;2023-03-16T02:34:18;98638.88;;;7.78;100.00
44103;BME280;29769;42.178;24.742;2023-03-16T02:37:03;98631.94;;;7.77;100.00
44103;BME280;29769;42.178;24.742;2023-03-16T02:39:49;98653.78;;;7.74;100.00
44103;BME280;29769;42.178;24.742;2023-03-16T02:42:35;98652.03;;;7.76;100.00
44103;BME280;29769;42.178;24.742;2023-03-16T02:45:21;98647.69;;;7.74;100.00
44103;BME280;29769;42.178;24.742;2023-03-16T02:48:11;98656.50;;;7.70;100.00
44103;BME280;29769;42.178;24.742;2023-03-16T02:50:58;98650.44;;;7.68;100.00
44103;BME280;29769;42.178;24.742;2023-03-16T02:53:45;98657.56;;;7.61;100.00
44103;BME280;29769;42.178;24.742;2023-03-16T02:56:29;98660.16;;;7.63;100.00
44103;BME280;29769;42.178;24.742;2023-03-16T02:59:14;98658.41;;;7.63;100.00
44103;BME280;29769;42.178;24.742;2023-03-16T03:01:59;98669.78;;;7.60;100.00
44103;BME280;29769;42.178;24.742;2023-03-16T03:04:44;98667.31;;;7.53;100.00
44103;BME280;29769;42.178;24.742;2023-03-16T03:07:32;98660.59;;;7.40;100.00
44103;BME280;29769;42.178;24.742;2023-03-16T03:10:21;98668.47;;;7.37;100.00
44103;BME280;29769;42.178;24.742;2023-03-16T03:13:06;98677.25;;;7.34;100.00
44103;BME280;29769;42.178;24.742;2023-03-16T03:15:50;98679.94;;;7.31;100.00
44103;BME280;29769;42.178;24.742;2023-03-16T03:18:39;98662.63;;;7.23;100.00
44103;BME280;29769;42.178;24.742;2023-03-16T03:21:24;98646.19;;;7.18;100.00
44103;BME280;29769;42.178;24.742;2023-03-16T03:24:09;98678.50;;;7.13;100.00
44103;BME280;29769;42.178;24.742;2023-03-16T03:26:55;98698.59;;;7.11;100.00
44103;BME280;29769;42.178;24.742;2023-03-16T03:29:40;98681.25;;;7.06;100.00
44103;BME280;29769;42.178;24.742;2023-03-16T03:32:24;98689.16;;;7.03;100.00
44103;BME280;29769;42.178;24.742;2023-03-16T03:35:09;98705.78;;;6.99;100.00
44103;BME280;29769;42.178;24.742;2023-03-16T03:37:56;98707.56;;;6.95;100.00
44103;BME280;29769;42.178;24.742;2023-03-16T03:40:41;98711.09;;;6.94;100.00
44103;BME280;29769;42.178;24.742;2023-03-16T03:43:26;98723.31;;;6.92;100.00
44103;BME280;29769;42.178;24.742;2023-03-16T03:46:11;98713.72;;;6.94;100.00
44103;BME280;29769;42.178;24.742;2023-03-16T03:48:56;98717.25;;;6.90;100.00
44103;BME280;29769;42.178;24.742;2023-03-16T03:51:48;98739.06;;;6.89;100.00
44103;BME280;29769;42.178;24.742;2023-03-16T03:54:35;98718.16;;;6.88;100.00
44103;BME280;29769;42.178;24.742;2023-03-16T03:57:24;98741.69;;;6.88;100.00
44103;BME280;29769;42.178;24.742;2023-03-16T04:00:09;98744.38;;;6.83;100.00
44103;BME280;29769;42.178;24.742;2023-03-16T04:02:57;98723.53;;;6.77;100.00
44103;BME280;29769;42.178;24.742;2023-03-16T04:05:49;98709.66;;;6.75;100.00
44103;BME280;29769;42.178;24.742;2023-03-16T04:08:34;98703.63;;;6.70;100.00
44103;BME280;29769;42.178;24.742;2023-03-16T04:11:19;98735.00;;;6.68;100.00
44103;BME280;29769;42.178;24.742;2023-03-16T04:14:04;98699.34;;;6.64;100.00
44103;BME280;29769;42.178;24.742;2023-03-16T04:16:50;98735.13;;;6.61;100.00
44103;BME280;29769;42.178;24.742;2023-03-16T04:19:35;98743.03;;;6.56;100.00
44103;BME280;29769;42.178;24.742;2023-03-16T04:22:21;98717.00;;;6.50;100.00
44103;BME280;29769;42.178;24.742;2023-03-16T04:25:07;98761.44;;;6.47;100.00
44103;BME280;29769;42.178;24.742;2023-03-16T04:27:54;98752.72;;;6.48;100.00
44103;BME280;29769;42.178;24.742;2023-03-16T04:30:43;98761.50;;;6.43;100.00
44103;BME280;29769;42.178;24.742;2023-03-16T04:33:36;98747.59;;;6.41;100.00
44103;BME280;29769;42.178;24.742;2023-03-16T04:36:21;98728.50;;;6.37;100.00
44103;BME280;29769;42.178;24.742;2023-03-16T04:39:08;98760.72;;;6.38;100.00
44103;BME280;29769;42.178;24.742;2023-03-16T04:41:53;98751.13;;;6.38;100.00
44103;BME280;29769;42.178;24.742;2023-03-16T04:44:40;98781.59;;;6.38;100.00
44103;BME280;29769;42.178;24.742;2023-03-16T04:47:27;98740.69;;;6.37;100.00
44103;BME280;29769;42.178;24.742;2023-03-16T04:50:14;98789.44;;;6.36;100.00
44103;BME280;29769;42.178;24.742;2023-03-16T04:53:00;98789.50;;;6.35;100.00
44103;BME280;29769;42.178;24.742;2023-03-16T04:55:46;98789.44;;;6.38;100.00
44103;BME280;29769;42.178;24.742;2023-03-16T04:58:31;98815.59;;;6.35;100.00
44103;BME280;29769;42.178;24.742;2023-03-16T05:01:18;98777.25;;;6.37;99.43
44103;BME280;29769;42.178;24.742;2023-03-16T05:04:04;98793.78;;;6.39;99.79
44103;BME280;29769;42.178;24.742;2023-03-16T05:06:52;98812.97;;;6.36;99.30
44103;BME280;29769;42.178;24.742;2023-03-16T05:09:41;98795.59;;;6.35;99.33
44103;BME280;29769;42.178;24.742;2023-03-16T05:12:26;98823.44;;;6.33;97.37
44103;BME280;29769;42.178;24.742;2023-03-16T05:15:17;98812.13;;;6.34;97.30
44103;BME280;29769;42.178;24.742;2023-03-16T05:18:07;98801.69;;;6.33;96.03
44103;BME280;29769;42.178;24.742;2023-03-16T05:20:52;98812.19;;;6.31;96.04
44103;BME280;29769;42.178;24.742;2023-03-16T05:23:38;98826.97;;;6.31;95.01
44103;BME280;29769;42.178;24.742;2023-03-16T05:26:23;98819.16;;;6.31;95.13
44103;BME280;29769;42.178;24.742;2023-03-16T05:29:10;98828.69;;;6.32;94.64
44103;BME280;29769;42.178;24.742;2023-03-16T05:31:55;98848.75;;;6.30;93.33
44103;BME280;29769;42.178;24.742;2023-03-16T05:34:43;98826.97;;;6.31;93.67
44103;BME280;29769;42.178;24.742;2023-03-16T05:37:28;98847.88;;;6.29;93.00
44103;BME280;29769;42.178;24.742;2023-03-16T05:40:14;98848.78;;;6.27;93.32
44103;BME280;29769;42.178;24.742;2023-03-16T05:43:07;98871.44;;;6.26;92.72
44103;BME280;29769;42.178;24.742;2023-03-16T05:45:58;98861.88;;;6.23;92.59
44103;BME280;29769;42.178;24.742;2023-03-16T05:48:43;98848.84;;;6.19;92.21
44103;BME280;29769;42.178;24.742;2023-03-16T05:51:30;98880.19;;;6.20;92.07
44103;BME280;29769;42.178;24.742;2023-03-16T05:54:16;98875.84;;;6.19;91.69
44103;BME280;29769;42.178;24.742;2023-03-16T05:57:03;98874.97;;;6.20;90.11
44103;BME280;29769;42.178;24.742;2023-03-16T05:59:50;98888.03;;;6.19;90.07
44103;BME280;29769;42.178;24.742;2023-03-16T06:02:36;98877.59;;;6.20;90.15
44103;BME280;29769;42.178;24.742;2023-03-16T06:05:21;98893.19;;;6.23;90.18
44103;BME280;29769;42.178;24.742;2023-03-16T06:08:08;98902.78;;;6.24;89.82
44103;BME280;29769;42.178;24.742;2023-03-16T06:10:54;98908.00;;;6.26;89.14
44103;BME280;29769;42.178;24.742;2023-03-16T06:13:39;98902.72;;;6.28;88.18
44103;BME280;29769;42.178;24.742;2023-03-16T06:16:24;98917.56;;;6.25;87.93
44103;BME280;29769;42.178;24.742;2023-03-16T06:19:09;98914.97;;;6.25;88.03
44103;BME280;29769;42.178;24.742;2023-03-16T06:21:54;98897.50;;;6.28;88.12
44103;BME280;29769;42.178;24.742;2023-03-16T06:24:38;98903.59;;;6.28;87.64
44103;BME280;29769;42.178;24.742;2023-03-16T06:27:23;98878.31;;;6.32;87.33
44103;BME280;29769;42.178;24.742;2023-03-16T06:30:23;98939.19;;;6.37;86.95
44103;BME280;29769;42.178;24.742;2023-03-16T06:33:09;98903.50;;;6.39;85.99
44103;BME280;29769;42.178;24.742;2023-03-16T06:35:53;98920.91;;;6.37;85.80
44103;BME280;29769;42.178;24.742;2023-03-16T06:39:00;98947.03;;;6.37;85.47
44103;BME280;29769;42.178;24.742;2023-03-16T06:41:52;98911.38;;;6.36;85.74
44103;BME280;29769;42.178;24.742;2023-03-16T06:44:38;98932.22;;;6.37;84.91
44103;BME280;29769;42.178;24.742;2023-03-16T06:47:27;98920.91;;;6.40;85.55
44103;BME280;29769;42.178;24.742;2023-03-16T06:50:12;98939.16;;;6.41;84.78
44103;BME280;29769;42.178;24.742;2023-03-16T06:52:58;98958.31;;;6.43;84.54
44103;BME280;29769;42.178;24.742;2023-03-16T06:55:44;98938.28;;;6.44;84.30
44103;BME280;29769;42.178;24.742;2023-03-16T06:58:30;98971.28;;;6.51;83.97
44103;BME280;29769;42.178;24.742;2023-03-16T07:01:14;98968.69;;;6.49;83.92
44103;BME280;29769;42.178;24.742;2023-03-16T07:03:59;98973.03;;;6.50;83.72
44103;BME280;29769;42.178;24.742;2023-03-16T07:06:48;98979.09;;;6.52;83.79
44103;BME280;29769;42.178;24.742;2023-03-16T07:09:34;98979.94;;;6.54;83.28
44103;BME280;29769;42.178;24.742;2023-03-16T07:12:18;98965.94;;;6.61;83.45
44103;BME280;29769;42.178;24.742;2023-03-16T07:15:03;98991.13;;;6.68;83.00
44103;BME280;29769;42.178;24.742;2023-03-16T07:17:48;98987.69;;;6.63;81.98
44103;BME280;29769;42.178;24.742;2023-03-16T07:20:33;98995.50;;;6.66;81.23
44103;BME280;29769;42.178;24.742;2023-03-16T07:23:22;98928.44;;;6.65;81.11
44103;BME280;29769;42.178;24.742;2023-03-16T07:26:08;99008.59;;;6.66;82.23
44103;BME280;29769;42.178;24.742;2023-03-16T07:29:03;98972.81;;;6.70;81.33
44103;BME280;29769;42.178;24.742;2023-03-16T07:31:51;99015.47;;;6.74;81.50
44103;BME280;29769;42.178;24.742;2023-03-16T07:34:40;98985.78;;;6.81;82.01
44103;BME280;29769;42.178;24.742;2023-03-16T07:37:25;99002.31;;;6.81;81.31
44103;BME280;29769;42.178;24.742;2023-03-16T07:40:14;98971.75;;;6.86;80.92
44103;BME280;29769;42.178;24.742;2023-03-16T07:42:58;98982.13;;;6.92;80.11
44103;BME280;29769;42.178;24.742;2023-03-16T07:45:46;98983.81;;;6.99;80.79
44103;BME280;29769;42.178;24.742;2023-03-16T07:48:31;98983.72;;;7.05;79.42
44103;BME280;29769;42.178;24.742;2023-03-16T07:51:19;98964.47;;;7.12;78.43
44103;BME280;29769;42.178;24.742;2023-03-16T07:54:07;98946.91;;;7.22;78.04
44103;BME280;29769;42.178;24.742;2023-03-16T07:56:53;98950.34;;;7.24;78.13
44103;BME280;29769;42.178;24.742;2023-03-16T07:59:47;98975.56;;;7.28;77.61
44103;BME280;29769;42.178;24.742;2023-03-16T08:02:34;98999.03;;;7.36;78.09
44103;BME280;29769;42.178;24.742;2023-03-16T08:05:19;98940.53;;;7.40;77.40
44103;BME280;29769;42.178;24.742;2023-03-16T08:08:08;98960.34;;;7.54;76.79
44103;BME280;29769;42.178;24.742;2023-03-16T08:10:54;98953.41;;;7.53;76.38
44103;BME280;29769;42.178;24.742;2023-03-16T08:13:42;98949.81;;;7.59;76.38
44103;BME280;29769;42.178;24.742;2023-03-16T08:16:27;98975.91;;;7.65;76.12
44103;BME280;29769;42.178;24.742;2023-03-16T08:19:12;99015.84;;;7.78;76.33
44103;BME280;29769;42.178;24.742;2023-03-16T08:21:57;98956.59;;;7.74;74.80
44103;BME280;29769;42.178;24.742;2023-03-16T08:24:46;98993.91;;;7.86;75.62
44103;BME280;29769;42.178;24.742;2023-03-16T08:27:34;99003.47;;;7.89;75.02
44103;BME280;29769;42.178;24.742;2023-03-16T08:30:22;99028.59;;;8.00;75.59
44103;BME280;29769;42.178;24.742;2023-03-16T08:33:23;99008.38;;;8.09;74.40
44103;BME280;29769;42.178;24.742;2023-03-16T08:36:09;99017.88;;;8.17;75.44
44103;BME280;29769;42.178;24.742;2023-03-16T08:38:55;99035.22;;;8.23;74.82
44103;BME280;29769;42.178;24.742;2023-03-16T08:41:41;99024.81;;;8.20;73.24
44103;BME280;29769;42.178;24.742;2023-03-16T08:44:36;99007.31;;;8.22;72.37
44103;BME280;29769;42.178;24.742;2023-03-16T08:47:20;99027.28;;;8.30;72.08
44103;BME280;29769;42.178;24.742;2023-03-16T08:50:06;98999.34;;;8.31;71.17
44103;BME280;29769;42.178;24.742;2023-03-16T08:52:51;99043.84;;;8.32;71.53
44103;BME280;29769;42.178;24.742;2023-03-16T08:55:36;99044.50;;;8.45;71.47
44103;BME280;29769;42.178;24.742;2023-03-16T08:58:21;99026.97;;;8.48;70.15
44103;BME280;29769;42.178;24.742;2023-03-16T09:01:05;99036.44;;;8.57;69.90
44103;BME280;29769;42.178;24.742;2023-03-16T09:03:50;99023.00;;;8.74;69.81
44103;BME280;29769;42.178;24.742;2023-03-16T09:06:35;99012.50;;;8.75;69.59
44103;BME280;29769;42.178;24.742;2023-03-16T09:09:55;99019.25;;;8.88;68.85
44103;BME280;29769;42.178;24.742;2023-03-16T09:12:42;99047.06;;;8.96;67.98
44103;BME280;29769;42.178;24.742;2023-03-16T09:15:27;99053.22;;;8.95;67.30
44103;BME280;29769;42.178;24.742;2023-03-16T09:18:12;99045.31;;;8.96;68.11
44103;BME280;29769;42.178;24.742;2023-03-16T09:21:03;99037.13;;;9.13;67.00
44103;BME280;29769;42.178;24.742;2023-03-16T09:23:47;99012.94;;;8.99;66.19
44103;BME280;29769;42.178;24.742;2023-03-16T09:26:33;99017.84;;;9.55;67.52
44103;BME280;29769;42.178;24.742;2023-03-16T09:29:18;99041.53;;;9.54;64.14
44103;BME280;29769;42.178;24.742;2023-03-16T09:32:03;99035.34;;;9.56;65.17
44103;BME280;29769;42.178;24.742;2023-03-16T09:34:48;99044.19;;;9.91;64.35
44103;BME280;29769;42.178;24.742;2023-03-16T09:37:34;99028.91;;;10.08;62.97
44103;BME280;29769;42.178;24.742;2023-03-16T09:40:20;99018.50;;;10.03;62.72
44103;BME280;29769;42.178;24.742;2023-03-16T09:46:29;99062.03;;;10.52;62.65
44103;BME280;29769;42.178;24.742;2023-03-16T09:49:20;99005.28;;;10.06;60.77
44103;BME280;29769;42.178;24.742;2023-03-16T09:55:30;99042.53;;;9.87;60.84
44103;BME280;29769;42.178;24.742;2023-03-16T09:58:18;99035.09;;;10.05;60.11
44103;BME280;29769;42.178;24.742;2023-03-16T10:04:05;99056.97;;;10.06;60.85
44103;BME280;29769;42.178;24.742;2023-03-16T10:09:56;99040.66;;;9.92;59.96
44103;BME280;29769;42.178;24.742;2023-03-16T10:12:46;99037.66;;;10.08;57.43
44103;BME280;29769;42.178;24.742;2023-03-16T10:15:35;99051.53;;;10.13;58.02
44103;BME280;29769;42.178;24.742;2023-03-16T10:18:45;99046.91;;;10.26;57.87
44103;BME280;29769;42.178;24.742;2023-03-16T10:21:38;99060.53;;;10.42;57.68
44103;BME280;29769;42.178;24.742;2023-03-16T10:27:32;99035.63;;;10.89;55.83
44103;BME280;29769;42.178;24.742;2023-03-16T10:30:22;99037.97;;;10.67;55.65
44103;BME280;29769;42.178;24.742;2023-03-16T10:33:29;99047.63;;;10.66;56.05
44103;BME280;29769;42.178;24.742;2023-03-16T10:36:27;99032.88;;;10.61;56.08
44103;BME280;29769;42.178;24.742;2023-03-16T10:39:14;99019.25;;;11.10;55.36
44103;BME280;29769;42.178;24.742;2023-03-16T10:42:00;99053.63;;;11.04;55.09
44103;BME280;29769;42.178;24.742;2023-03-16T10:44:45;99046.47;;;11.09;55.39
44103;BME280;29769;42.178;24.742;2023-03-16T10:47:32;99057.59;;;11.19;54.84
44103;BME280;29769;42.178;24.742;2023-03-16T10:50:22;99050.94;;;10.73;54.99
44103;BME280;29769;42.178;24.742;2023-03-16T10:53:27;99062.06;;;10.50;56.74
44103;BME280;29769;42.178;24.742;2023-03-16T10:56:20;99051.16;;;10.65;56.63
44103;BME280;29769;42.178;24.742;2023-03-16T10:59:35;99044.91;;;10.36;56.72
44103;BME280;29769;42.178;24.742;2023-03-16T11:02:24;99053.19;;;10.54;57.79
44103;BME280;29769;42.178;24.742;2023-03-16T11:08:53;99052.66;;;10.40;57.95
44103;BME280;29769;42.178;24.742;2023-03-16T11:11:20;99051.75;;;10.41;58.25
44103;BME280;29769;42.178;24.742;2023-03-16T11:14:12;99032.13;;;10.56;57.20
44103;BME280;29769;42.178;24.742;2023-03-16T11:17:01;99040.22;;;10.47;58.12
44103;BME280;29769;42.178;24.742;2023-03-16T11:19:57;99000.75;;;10.13;58.10
44103;BME280;29769;42.178;24.742;2023-03-16T11:22:44;99016.44;;;10.17;57.61
44103;BME280;29769;42.178;24.742;2023-03-16T11:25:38;99034.75;;;10.56;57.34
44103;BME280;29769;42.178;24.742;2023-03-16T11:28:37;99030.91;;;10.35;57.77
44103;BME280;29769;42.178;24.742;2023-03-16T11:31:44;98991.75;;;10.23;58.01
44103;BME280;29769;42.178;24.742;2023-03-16T11:34:33;99035.84;;;10.10;58.29
44103;BME280;29769;42.178;24.742;2023-03-16T11:43:55;99030.84;;;10.37;58.53
44103;BME280;29769;42.178;24.742;2023-03-16T11:49:37;99012.72;;;10.26;58.42
44103;BME280;29769;42.178;24.742;2023-03-16T12:10:28;99014.72;;;10.50;56.55
44103;BME280;29769;42.178;24.742;2023-03-16T12:18:59;99020.63;;;10.92;55.86
44103;BME280;29769;42.178;24.742;2023-03-16T12:21:47;99051.78;;;10.75;56.57
44103;BME280;29769;42.178;24.742;2023-03-16T12:24:41;99023.50;;;10.83;55.46
44103;BME280;29769;42.178;24.742;2023-03-16T12:27:35;99050.03;;;10.76;56.36
44103;BME280;29769;42.178;24.742;2023-03-16T12:33:38;99070.22;;;10.74;55.98
44103;BME280;29769;42.178;24.742;2023-03-16T12:45:35;99069.03;;;10.53;57.87
44103;BME280;29769;42.178;24.742;2023-03-16T12:48:31;99071.06;;;10.40;56.64
44103;BME280;29769;42.178;24.742;2023-03-16T12:51:17;99026.75;;;10.27;57.53
44103;BME280;29769;42.178;24.742;2023-03-16T12:54:02;99037.09;;;10.33;57.92
44103;BME280;29769;42.178;24.742;2023-03-16T12:56:50;99072.50;;;10.53;57.61
44103;BME280;29769;42.178;24.742;2023-03-16T12:59:38;99084.84;;;10.50;57.03
44103;BME280;29769;42.178;24.742;2023-03-16T13:02:31;99061.72;;;10.29;57.18
44103;BME280;29769;42.178;24.742;2023-03-16T13:05:27;99078.38;;;10.27;57.84
44103;BME280;29769;42.178;24.742;2023-03-16T13:08:16;99082.88;;;10.22;57.67
44103;BME280;29769;42.178;24.742;2023-03-16T13:11:06;99084.81;;;10.16;58.39
44103;BME280;29769;42.178;24.742;2023-03-16T13:16:43;99089.75;;;10.30;57.79
44103;BME280;29769;42.178;24.742;2023-03-16T13:19:29;99119.34;;;10.38;57.35
44103;BME280;29769;42.178;24.742;2023-03-16T13:22:24;99111.09;;;10.14;57.68
44103;BME280;29769;42.178;24.742;2023-03-16T13:25:14;99096.19;;;10.15;58.25
44103;BME280;29769;42.178;24.742;2023-03-16T13:28:00;99042.97;;;10.05;58.40
44103;BME280;29769;42.178;24.742;2023-03-16T13:30:46;99125.38;;;10.03;59.00
44103;BME280;29769;42.178;24.742;2023-03-16T13:33:33;99067.00;;;9.90;59.19
44103;BME280;29769;42.178;24.742;2023-03-16T13:36:21;99115.88;;;9.96;59.99
44103;BME280;29769;42.178;24.742;2023-03-16T13:39:14;99098.63;;;9.84;59.59
44103;BME280;29769;42.178;24.742;2023-03-16T13:42:08;99115.38;;;9.78;61.08
44103;BME280;29769;42.178;24.742;2023-03-16T13:45:09;99119.75;;;9.79;61.09
44103;BME280;29769;42.178;24.742;2023-03-16T13:47:54;99121.78;;;9.65;61.66
44103;BME280;29769;42.178;24.742;2023-03-16T13:50:40;99137.72;;;9.58;60.82
44103;BME280;29769;42.178;24.742;2023-03-16T13:53:28;99134.16;;;9.59;62.28
44103;BME280;29769;42.178;24.742;2023-03-16T13:56:15;99139.75;;;9.44;62.24
44103;BME280;29769;42.178;24.742;2023-03-16T13:59:01;99170.28;;;9.49;64.07
44103;BME280;29769;42.178;24.742;2023-03-16T14:01:47;99165.94;;;9.45;63.80
44103;BME280;29769;42.178;24.742;2023-03-16T14:04:32;99171.25;;;9.42;63.93
44103;BME280;29769;42.178;24.742;2023-03-16T14:07:19;99157.41;;;9.35;63.35
44103;BME280;29769;42.178;24.742;2023-03-16T14:10:05;99175.00;;;9.30;63.73
44103;BME280;29769;42.178;24.742;2023-03-16T14:12:53;99153.25;;;9.24;63.31
44103;BME280;29769;42.178;24.742;2023-03-16T14:15:39;99175.19;;;9.18;64.16
44103;BME280;29769;42.178;24.742;2023-03-16T14:21:25;99182.66;;;8.92;65.67
44103;BME280;29769;42.178;24.742;2023-03-16T14:24:24;99177.56;;;8.84;66.30
44103;BME280;29769;42.178;24.742;2023-03-16T14:27:26;99175.81;;;8.83;67.06
44103;BME280;29769;42.178;24.742;2023-03-16T14:30:14;99180.19;;;8.83;67.99
44103;BME280;29769;42.178;24.742;2023-03-16T14:33:02;99155.06;;;8.70;67.13
44103;BME280;29769;42.178;24.742;2023-03-16T14:35:53;99150.06;;;8.55;67.98
44103;BME280;29769;42.178;24.742;2023-03-16T14:38:41;99209.53;;;8.53;69.57
44103;BME280;29769;42.178;24.742;2023-03-16T14:41:28;99215.69;;;8.48;70.52
44103;BME280;29769;42.178;24.742;2023-03-16T14:44:19;99193.13;;;8.37;70.05
44103;BME280;29769;42.178;24.742;2023-03-16T14:47:05;99208.06;;;8.32;70.21
44103;BME280;29769;42.178;24.742;2023-03-16T14:49:51;99225.59;;;8.24;69.84
44103;BME280;29769;42.178;24.742;2023-03-16T14:52:36;99216.00;;;8.23;70.31
44103;BME280;29769;42.178;24.742;2023-03-16T14:55:21;99223.94;;;8.18;70.97
44103;BME280;29769;42.178;24.742;2023-03-16T14:58:08;99232.75;;;8.13;71.37
44103;BME280;29769;42.178;24.742;2023-03-16T15:00:53;99230.22;;;8.05;71.00
44103;BME280;29769;42.178;24.742;2023-03-16T15:03:38;99224.19;;;7.98;71.29
44103;BME280;29769;42.178;24.742;2023-03-16T15:06:25;99210.31;;;7.90;71.32
44103;BME280;29769;42.178;24.742;2023-03-16T15:12:16;99220.00;;;7.85;71.18
44103;BME280;29769;42.178;24.742;2023-03-16T15:15:13;99245.38;;;7.80;71.71
44103;BME280;29769;42.178;24.742;2023-03-16T15:17:59;99263.78;;;7.71;71.49
44103;BME280;29769;42.178;24.742;2023-03-16T15:20:44;99275.19;;;7.66;72.02
44103;BME280;29769;42.178;24.742;2023-03-16T15:23:29;99261.28;;;7.59;72.10
44103;BME280;29769;42.178;24.742;2023-03-16T15:26:19;99240.56;;;7.39;72.18
44103;BME280;29769;42.178;24.742;2023-03-16T15:29:05;99259.66;;;7.49;71.95
44103;BME280;29769;42.178;24.742;2023-03-16T15:31:49;99289.34;;;7.46;72.20
44103;BME280;29769;42.178;24.742;2023-03-16T15:34:35;99303.31;;;7.42;71.95
44103;BME280;29769;42.178;24.742;2023-03-16T15:37:19;99260.66;;;7.36;72.07
44103;BME280;29769;42.178;24.742;2023-03-16T15:40:33;99259.81;;;7.34;72.01
44103;BME280;29769;42.178;24.742;2023-03-16T15:43:21;99217.97;;;7.29;72.12
44103;BME280;29769;42.178;24.742;2023-03-16T15:46:08;99276.56;;;7.13;72.61
44103;BME280;29769;42.178;24.742;2023-03-16T15:48:53;99296.53;;;7.22;73.31
44103;BME280;29769;42.178;24.742;2023-03-16T15:51:39;99307.91;;;7.18;73.45
44103;BME280;29769;42.178;24.742;2023-03-16T15:54:24;99307.00;;;7.19;73.31
44103;BME280;29769;42.178;24.742;2023-03-16T15:57:09;99301.81;;;7.15;73.74
44103;BME280;29769;42.178;24.742;2023-03-16T15:59:56;99333.19;;;7.14;74.45
44103;BME280;29769;42.178;24.742;2023-03-16T16:02:42;99335.81;;;7.14;73.85
44103;BME280;29769;42.178;24.742;2023-03-16T16:05:28;99329.72;;;7.13;74.20